| time (UTC) | temp C | wind direction | speed KPH | gust KPH | rain 1hr cm | rain 24hr cm | rain mn cm | humidity % | barometer mb |
| 20260506092118 | 16 | 0 | 0.0 | 0.0 | 0.00 | 0.00 | 0.00 | 81 | 1018.8 |
| 20260506091618 | 16 | 0 | 0.0 | 0.0 | 0.00 | 0.00 | 0.00 | 81 | 1018.7 |
| 20260506091119 | 16 | 0 | 0.0 | 0.0 | 0.00 | 0.00 | 0.00 | 80 | 1018.7 |
| 20260506090618 | 16 | 0 | 0.0 | 0.0 | 0.00 | 0.00 | 0.00 | 81 | 1018.7 |
| 20260506090119 | 16 | 0 | 0.0 | 0.0 | 0.00 | 0.00 | 0.00 | 80 | 1018.7 |
| 20260506085618 | 16 | 0 | 0.0 | 0.0 | 0.00 | 0.00 | 0.00 | 80 | 1018.7 |
| 20260506085119 | 16 | 0 | 0.0 | 0.0 | 0.00 | 0.00 | 0.00 | 80 | 1018.7 |
| 20260506084618 | 16 | 0 | 0.0 | 0.0 | 0.00 | 0.00 | 0.00 | 80 | 1018.7 |
| 20260506084119 | 16 | 0 | 0.0 | 0.0 | 0.00 | 0.00 | 0.00 | 80 | 1018.7 |
| 20260506083619 | 16 | 0 | 0.0 | 0.0 | 0.00 | 0.00 | 0.00 | 79 | 1018.7 |
| 20260506083119 | 16 | 0 | 0.0 | 0.0 | 0.00 | 0.00 | 0.00 | 79 | 1018.8 |
| 20260506082618 | 16 | 0 | 0.0 | 0.0 | 0.00 | 0.00 | 0.00 | 79 | 1018.7 |
| 20260506082118 | 16 | 0 | 0.0 | 0.0 | 0.00 | 0.00 | 0.00 | 79 | 1018.8 |
| 20260506081618 | 16 | 105 | 0.0 | 1.6 | 0.00 | 0.00 | 0.00 | 79 | 1018.7 |
| 20260506081118 | 16 | 105 | 0.0 | 1.6 | 0.00 | 0.00 | 0.00 | 78 | 1018.7 |
| 20260506080618 | 16 | 0 | 0.0 | 0.0 | 0.00 | 0.00 | 0.00 | 78 | 1018.7 |
| 20260506080118 | 16 | 0 | 0.0 | 0.0 | 0.00 | 0.00 | 0.00 | 78 | 1018.6 |
| 20260506073118 | 16 | 0 | 0.0 | 0.0 | 0.00 | 0.00 | 0.00 | 78 | 1018.4 |
| 20260506072618 | 16 | 0 | 0.0 | 0.0 | 0.00 | 0.00 | 0.00 | 77 | 1018.3 |
| 20260506072118 | 16 | 0 | 0.0 | 0.0 | 0.00 | 0.00 | 0.00 | 77 | 1018.3 |
| 20260506071618 | 16 | 98 | 0.0 | 1.6 | 0.00 | 0.00 | 0.00 | 77 | 1018.2 |
| 20260506071118 | 16 | 98 | 0.0 | 1.6 | 0.00 | 0.00 | 0.00 | 77 | 1018.2 |
| 20260506070619 | 16 | 0 | 0.0 | 0.0 | 0.00 | 0.00 | 0.00 | 77 | 1018.1 |
| 20260506070118 | 16 | 0 | 0.0 | 0.0 | 0.00 | 0.00 | 0.00 | 77 | 1018.1 |
| 20260506062118 | 16 | 0 | 0.0 | 0.0 | 0.00 | 0.00 | 0.00 | 76 | 1017.9 |
| 20260506061619 | 16 | 0 | 0.0 | 0.0 | 0.00 | 0.00 | 0.00 | 75 | 1017.9 |
| 20260506061119 | 16 | 0 | 0.0 | 0.0 | 0.00 | 0.00 | 0.00 | 76 | 1017.9 |
| 20260506060619 | 16 | 0 | 0.0 | 0.0 | 0.00 | 0.00 | 0.00 | 76 | 1017.8 |
| 20260506060118 | 16 | 0 | 0.0 | 0.0 | 0.00 | 0.00 | 0.00 | 75 | 1017.8 |
| 20260506051118 | 17 | 0 | 0.0 | 0.0 | 0.00 | 0.00 | 0.00 | 75 | 1017.2 |
| 20260506050618 | 17 | 0 | 0.0 | 0.0 | 0.00 | 0.00 | 0.00 | 75 | 1017.2 |
| 20260506050119 | 17 | 0 | 0.0 | 0.0 | 0.00 | 0.00 | 0.00 | 75 | 1017.2 |
| 20260506045118 | 17 | 0 | 0.0 | 0.0 | 0.00 | 0.03 | 0.00 | 74 | 1017.2 |
| 20260506044618 | 17 | 0 | 0.0 | 0.0 | 0.00 | 0.03 | 0.00 | 74 | 1017.1 |
| 20260506044118 | 17 | 0 | 0.0 | 0.0 | 0.00 | 0.03 | 0.00 | 73 | 1017.0 |
| 20260506043619 | 17 | 106 | 0.0 | 1.6 | 0.00 | 0.03 | 0.00 | 73 | 1016.9 |
| 20260506043119 | 17 | 114 | 0.0 | 1.6 | 0.00 | 0.03 | 0.00 | 73 | 1016.9 |
| 20260506042618 | 17 | 121 | 0.0 | 1.6 | 0.00 | 0.03 | 0.00 | 73 | 1016.8 |
| 20260506042118 | 17 | 129 | 0.0 | 1.6 | 0.00 | 0.03 | 0.00 | 73 | 1016.8 |
| 20260506041618 | 17 | 0 | 0.0 | 0.0 | 0.00 | 0.05 | 0.00 | 73 | 1016.7 |
| 20260506041119 | 17 | 0 | 0.0 | 0.0 | 0.00 | 0.05 | 0.00 | 73 | 1016.7 |
| 20260506040618 | 17 | 0 | 0.0 | 0.0 | 0.00 | 0.05 | 0.00 | 73 | 1016.6 |
| 20260506040118 | 17 | 218 | 0.0 | 1.6 | 0.00 | 0.05 | 0.00 | 73 | 1016.5 |
| 20260506035618 | 17 | 218 | 0.0 | 1.6 | 0.00 | 0.05 | 0.00 | 72 | 1016.5 |
| 20260506035118 | 17 | 107 | 0.0 | 1.6 | 0.00 | 0.08 | 0.00 | 72 | 1016.4 |
| 20260506034618 | 17 | 168 | 0.0 | 1.6 | 0.00 | 0.08 | 0.00 | 72 | 1016.3 |
| 20260506034119 | 17 | 267 | 0.0 | 1.6 | 0.00 | 0.08 | 0.00 | 72 | 1016.2 |
| 20260506033618 | 17 | 0 | 0.0 | 0.0 | 0.00 | 0.08 | 0.00 | 72 | 1016.2 |
| 20260506033119 | 17 | 0 | 0.0 | 0.0 | 0.00 | 0.08 | 0.00 | 72 | 1016.1 |
| 20260506032618 | 17 | 124 | 0.0 | 1.6 | 0.00 | 0.08 | 0.00 | 72 | 1016.0 |
| 20260506032119 | 17 | 124 | 0.0 | 1.6 | 0.00 | 0.08 | 0.00 | 72 | 1016.0 |
| 20260506031618 | 17 | 0 | 0.0 | 0.0 | 0.00 | 0.10 | 0.00 | 72 | 1015.8 |
| 20260506031119 | 17 | 75 | 0.0 | 1.6 | 0.00 | 0.10 | 0.00 | 72 | 1015.7 |
| 20260506030618 | 17 | 61 | 0.0 | 1.6 | 0.00 | 0.10 | 0.00 | 72 | 1015.7 |
| 20260506030118 | 17 | 58 | 0.0 | 1.6 | 0.00 | 0.10 | 0.00 | 71 | 1015.6 |
| 20260506025618 | 17 | 164 | 0.0 | 1.6 | 0.00 | 0.10 | 0.00 | 72 | 1015.5 |
| 20260506025118 | 17 | 209 | 0.0 | 3.2 | 0.00 | 0.13 | 0.00 | 71 | 1015.4 |
| 20260506024618 | 17 | 138 | 0.0 | 3.2 | 0.00 | 0.13 | 0.00 | 71 | 1015.3 |
| 20260506024118 | 17 | 146 | 0.0 | 3.2 | 0.00 | 0.13 | 0.00 | 71 | 1015.3 |
| 20260506023619 | 17 | 149 | 0.0 | 3.2 | 0.00 | 0.15 | 0.00 | 70 | 1015.3 |
| 20260506023119 | 18 | 106 | 0.0 | 1.6 | 0.00 | 0.15 | 0.00 | 70 | 1015.2 |
| 20260506022618 | 18 | 134 | 0.0 | 1.6 | 0.00 | 0.15 | 0.00 | 70 | 1015.2 |
| 20260506022118 | 18 | 85 | 0.0 | 3.2 | 0.00 | 0.15 | 0.00 | 70 | 1015.1 |
| 20260506021618 | 18 | 92 | 0.0 | 3.2 | 0.00 | 0.15 | 0.00 | 70 | 1015.1 |
| 20260506021119 | 18 | 110 | 0.0 | 3.2 | 0.00 | 0.15 | 0.00 | 70 | 1015.0 |
| 20260506020618 | 18 | 114 | 0.0 | 4.8 | 0.00 | 0.15 | 0.00 | 70 | 1015.0 |
| 20260506020118 | 18 | 114 | 0.0 | 4.8 | 0.00 | 0.15 | 0.00 | 69 | 1014.9 |
| 20260506015619 | 18 | 118 | 0.0 | 4.8 | 0.00 | 0.15 | 0.00 | 68 | 1014.9 |
| 20260506015119 | 18 | 126 | 0.0 | 4.8 | 0.00 | 0.15 | 0.00 | 68 | 1014.9 |
| 20260506014618 | 18 | 125 | 0.0 | 4.8 | 0.00 | 0.15 | 0.00 | 68 | 1014.9 |
| 20260506014118 | 18 | 124 | 0.0 | 4.8 | 0.00 | 0.15 | 0.00 | 68 | 1014.9 |
| 20260506013618 | 18 | 95 | 0.0 | 3.2 | 0.00 | 0.15 | 0.00 | 68 | 1014.8 |
| 20260506013118 | 18 | 91 | 0.0 | 3.2 | 0.00 | 0.15 | 0.00 | 67 | 1014.7 |
| 20260506012618 | 18 | 96 | 0.0 | 1.6 | 0.00 | 0.15 | 0.00 | 66 | 1014.7 |
| 20260506012118 | 19 | 84 | 0.0 | 4.8 | 0.00 | 0.15 | 0.00 | 66 | 1014.6 |
| 20260506011618 | 19 | 81 | 0.0 | 4.8 | 0.00 | 0.15 | 0.00 | 66 | 1014.6 |
| 20260506011119 | 19 | 133 | 0.0 | 1.6 | 0.00 | 0.15 | 0.00 | 65 | 1014.5 |
| 20260506010618 | 19 | 80 | 0.0 | 1.6 | 0.00 | 0.15 | 0.00 | 64 | 1014.5 |
| 20260506010119 | 19 | 66 | 0.0 | 1.6 | 0.00 | 0.15 | 0.00 | 64 | 1014.5 |
| 20260506005618 | 19 | 119 | 0.0 | 1.6 | 0.00 | 0.15 | 0.00 | 64 | 1014.5 |
| 20260506005119 | 19 | 83 | 0.0 | 3.2 | 0.00 | 0.15 | 0.00 | 64 | 1014.5 |
| 20260506004618 | 19 | 75 | 0.0 | 4.8 | 0.00 | 0.15 | 0.00 | 63 | 1014.4 |
| 20260506004118 | 20 | 90 | 0.0 | 4.8 | 0.00 | 0.15 | 0.00 | 62 | 1014.4 |
| 20260506003619 | 20 | 145 | 0.0 | 4.8 | 0.00 | 0.15 | 0.00 | 62 | 1014.3 |
| 20260506003118 | 20 | 92 | 0.0 | 1.6 | 0.00 | 0.15 | 0.00 | 62 | 1014.3 |
| 20260506002618 | 20 | 94 | 0.0 | 1.6 | 0.00 | 0.15 | 0.00 | 62 | 1014.4 |
| 20260506002118 | 20 | 0 | 0.0 | 0.0 | 0.00 | 0.15 | 0.00 | 63 | 1014.3 |
| 20260506001618 | 20 | 81 | 0.0 | 1.6 | 0.00 | 0.15 | 0.00 | 63 | 1014.3 |
| 20260506001118 | 20 | 54 | 0.0 | 3.2 | 0.00 | 0.15 | 0.00 | 62 | 1014.3 |
| 20260506000618 | 20 | 60 | 0.0 | 3.2 | 0.00 | 0.15 | 0.00 | 61 | 1014.2 |
| 20260506000118 | 20 | 90 | 0.0 | 1.6 | 0.00 | 0.15 | 0.00 | 62 | 1014.2 |
| 20260505235618 | 20 | 115 | 0.0 | 1.6 | 0.00 | 0.15 | 0.00 | 61 | 1014.1 |
| 20260505235119 | 20 | 98 | 0.0 | 4.8 | 0.00 | 0.15 | 0.00 | 61 | 1014.1 |
| 20260505234618 | 20 | 83 | 0.0 | 4.8 | 0.00 | 0.15 | 0.00 | 61 | 1014.1 |
| 20260505234118 | 20 | 73 | 0.0 | 4.8 | 0.00 | 0.15 | 0.00 | 60 | 1014.1 |
| 20260505233618 | 20 | 46 | 0.0 | 3.2 | 0.00 | 0.15 | 0.00 | 61 | 1014.1 |
| 20260505233118 | 20 | 40 | 0.0 | 3.2 | 0.00 | 0.15 | 0.00 | 61 | 1014.2 |
| 20260505232619 | 20 | 124 | 0.0 | 1.6 | 0.00 | 0.15 | 0.00 | 60 | 1014.2 |
| 20260505232118 | 20 | 117 | 0.0 | 1.6 | 0.00 | 0.15 | 0.00 | 61 | 1014.2 |
| 20260505231618 | 20 | 86 | 0.0 | 4.8 | 0.00 | 0.15 | 0.00 | 61 | 1014.2 |
| 20260505231118 | 20 | 85 | 0.0 | 4.8 | 0.00 | 0.15 | 0.00 | 61 | 1014.3 |
| 20260505230618 | 20 | 91 | 0.0 | 1.6 | 0.00 | 0.15 | 0.00 | 61 | 1014.3 |
| 20260505230118 | 20 | 94 | 0.0 | 1.6 | 0.00 | 0.15 | 0.00 | 59 | 1014.3 |
| 20260505225619 | 20 | 95 | 0.0 | 1.6 | 0.00 | 0.15 | 0.00 | 59 | 1014.4 |
| 20260505225119 | 20 | 76 | 0.0 | 1.6 | 0.00 | 0.15 | 0.00 | 60 | 1014.4 |
| 20260505224618 | 20 | 290 | 0.0 | 1.6 | 0.00 | 0.15 | 0.00 | 60 | 1014.5 |
| 20260505224118 | 20 | 92 | 0.0 | 3.2 | 0.00 | 0.15 | 0.00 | 60 | 1014.5 |
| 20260505223618 | 20 | 76 | 0.0 | 3.2 | 0.00 | 0.15 | 0.00 | 59 | 1014.7 |
| 20260505223119 | 20 | 66 | 0.0 | 1.6 | 0.00 | 0.15 | 0.00 | 62 | 1014.6 |
| 20260505222618 | 20 | 351 | 0.0 | 4.8 | 0.00 | 0.15 | 0.00 | 63 | 1014.7 |
| 20260505222118 | 19 | 345 | 0.0 | 4.8 | 0.00 | 0.15 | 0.00 | 63 | 1014.7 |
| 20260505221618 | 19 | 355 | 0.0 | 4.8 | 0.00 | 0.15 | 0.00 | 63 | 1014.8 |
| 20260505221118 | 19 | 14 | 0.0 | 1.6 | 0.00 | 0.15 | 0.00 | 63 | 1014.9 |
| 20260505220618 | 19 | 318 | 0.0 | 1.6 | 0.00 | 0.15 | 0.00 | 64 | 1014.9 |
| 20260505220119 | 18 | 319 | 0.0 | 1.6 | 0.00 | 0.15 | 0.00 | 66 | 1014.9 |
| 20260505215619 | 19 | 319 | 0.0 | 1.6 | 0.00 | 0.15 | 0.00 | 63 | 1014.9 |
| 20260505215119 | 19 | 141 | 0.0 | 1.6 | 0.00 | 0.15 | 0.00 | 65 | 1015.0 |
| 20260505214618 | 19 | 0 | 0.0 | 0.0 | 0.00 | 0.15 | 0.00 | 64 | 1015.1 |
| 20260505214118 | 19 | 0 | 0.0 | 0.0 | 0.00 | 0.15 | 0.00 | 64 | 1015.1 |
| 20260505213619 | 19 | 0 | 0.0 | 0.0 | 0.00 | 0.15 | 0.00 | 63 | 1015.1 |
| 20260505213119 | 19 | 0 | 0.0 | 0.0 | 0.00 | 0.15 | 0.00 | 63 | 1015.1 |
| 20260505212619 | 20 | 0 | 0.0 | 0.0 | 0.00 | 0.15 | 0.00 | 62 | 1015.2 |
| 20260505212118 | 20 | 0 | 0.0 | 0.0 | 0.00 | 0.15 | 0.00 | 64 | 1015.1 |
| 20260505211618 | 20 | 0 | 0.0 | 0.0 | 0.00 | 0.15 | 0.00 | 64 | 1015.1 |
| 20260505211118 | 20 | 87 | 0.0 | 1.6 | 0.00 | 0.15 | 0.00 | 62 | 1015.1 |
| 20260505210618 | 20 | 78 | 0.0 | 1.6 | 0.00 | 0.15 | 0.00 | 63 | 1015.2 |
| 20260505210118 | 20 | 67 | 0.0 | 1.6 | 0.00 | 0.15 | 0.00 | 63 | 1015.2 |
| 20260505205618 | 20 | 49 | 0.0 | 1.6 | 0.00 | 0.15 | 0.00 | 62 | 1015.2 |
| 20260505205118 | 20 | 43 | 0.0 | 1.6 | 0.00 | 0.15 | 0.00 | 62 | 1015.2 |
| 20260505204618 | 20 | 44 | 0.0 | 3.2 | 0.00 | 0.15 | 0.00 | 64 | 1015.2 |
| 20260505204119 | 20 | 8 | 0.0 | 3.2 | 0.00 | 0.15 | 0.00 | 62 | 1015.3 |
| 20260505203619 | 20 | 227 | 0.0 | 3.2 | 0.00 | 0.15 | 0.00 | 63 | 1015.3 |
| 20260505203118 | 20 | 141 | 0.0 | 1.6 | 0.00 | 0.15 | 0.00 | 63 | 1015.3 |
| 20260505202618 | 20 | 31 | 0.0 | 4.8 | 0.00 | 0.15 | 0.00 | 63 | 1015.3 |
| 20260505202118 | 20 | 39 | 0.0 | 4.8 | 0.00 | 0.15 | 0.00 | 63 | 1015.3 |
| 20260505201618 | 20 | 89 | 0.0 | 1.6 | 0.00 | 0.15 | 0.00 | 64 | 1015.4 |
| 20260505201119 | 20 | 66 | 0.0 | 1.6 | 0.00 | 0.15 | 0.00 | 62 | 1015.5 |
| 20260505200618 | 20 | 0 | 0.0 | 0.0 | 0.00 | 0.15 | 0.00 | 63 | 1015.6 |
| 20260505200119 | 20 | 0 | 0.0 | 0.0 | 0.00 | 0.15 | 0.00 | 64 | 1015.5 |
| 20260505195619 | 19 | 0 | 0.0 | 0.0 | 0.00 | 0.15 | 0.00 | 66 | 1015.6 |
| 20260505195118 | 19 | 0 | 0.0 | 0.0 | 0.00 | 0.15 | 0.00 | 65 | 1015.6 |
| 20260505194619 | 19 | 0 | 0.0 | 0.0 | 0.00 | 0.15 | 0.00 | 65 | 1015.7 |
| 20260505194119 | 19 | 0 | 0.0 | 0.0 | 0.00 | 0.15 | 0.00 | 64 | 1015.7 |
| 20260505193619 | 20 | 0 | 0.0 | 0.0 | 0.00 | 0.15 | 0.00 | 65 | 1015.8 |
| 20260505193118 | 19 | 0 | 0.0 | 0.0 | 0.00 | 0.15 | 0.00 | 64 | 1015.8 |
| 20260505192619 | 19 | 324 | 0.0 | 1.6 | 0.00 | 0.15 | 0.00 | 65 | 1015.8 |
| 20260505192118 | 19 | 151 | 0.0 | 1.6 | 0.00 | 0.15 | 0.00 | 66 | 1015.8 |
| 20260505191619 | 19 | 114 | 0.0 | 1.6 | 0.00 | 0.15 | 0.00 | 64 | 1015.9 |
| 20260505191119 | 18 | 87 | 0.0 | 3.2 | 0.00 | 0.15 | 0.00 | 66 | 1015.9 |
| 20260505190619 | 18 | 89 | 0.0 | 3.2 | 0.00 | 0.15 | 0.00 | 67 | 1015.9 |
| 20260505190119 | 17 | 175 | 0.0 | 3.2 | 0.00 | 0.15 | 0.00 | 69 | 1016.0 |
| 20260505185619 | 17 | 181 | 0.0 | 3.2 | 0.00 | 0.15 | 0.00 | 71 | 1016.0 |
| 20260505185119 | 17 | 217 | 0.0 | 1.6 | 0.00 | 0.15 | 0.00 | 71 | 1016.0 |
| 20260505184618 | 17 | 165 | 0.0 | 1.6 | 0.00 | 0.15 | 0.00 | 73 | 1016.0 |
| 20260505184118 | 17 | 136 | 0.0 | 1.6 | 0.00 | 0.15 | 0.00 | 73 | 1016.0 |
| 20260505183618 | 17 | 201 | 0.0 | 1.6 | 0.00 | 0.15 | 0.00 | 73 | 1016.0 |
| 20260505183119 | 16 | 223 | 0.0 | 1.6 | 0.00 | 0.15 | 0.00 | 73 | 1016.0 |
| 20260505182618 | 16 | 82 | 0.0 | 1.6 | 0.00 | 0.15 | 0.00 | 72 | 1016.0 |
| 20260505182118 | 16 | 82 | 0.0 | 1.6 | 0.00 | 0.15 | 0.00 | 72 | 1016.1 |
| 20260505181618 | 17 | 70 | 0.0 | 1.6 | 0.00 | 0.15 | 0.00 | 72 | 1016.0 |
| 20260505181118 | 17 | 0 | 0.0 | 0.0 | 0.00 | 0.15 | 0.00 | 74 | 1016.0 |
| 20260505180618 | 16 | 0 | 0.0 | 0.0 | 0.00 | 0.15 | 0.00 | 75 | 1016.1 |
| 20260505180118 | 16 | 0 | 0.0 | 0.0 | 0.00 | 0.15 | 0.00 | 74 | 1016.0 |
| 20260505175618 | 16 | 0 | 0.0 | 0.0 | 0.00 | 0.15 | 0.00 | 75 | 1016.1 |
| 20260505175118 | 16 | 231 | 0.0 | 3.2 | 0.00 | 0.15 | 0.00 | 76 | 1016.0 |
| 20260505174618 | 16 | 234 | 0.0 | 3.2 | 0.00 | 0.15 | 0.00 | 76 | 1016.0 |
| 20260505174119 | 16 | 40 | 0.0 | 1.6 | 0.00 | 0.15 | 0.00 | 77 | 1016.0 |
| 20260505173618 | 16 | 119 | 0.0 | 1.6 | 0.00 | 0.15 | 0.00 | 77 | 1016.0 |
| 20260505173119 | 15 | 103 | 0.0 | 1.6 | 0.00 | 0.15 | 0.00 | 78 | 1016.0 |
| 20260505172618 | 15 | 107 | 0.0 | 1.6 | 0.00 | 0.15 | 0.00 | 78 | 1016.0 |
| 20260505172118 | 15 | 145 | 0.0 | 1.6 | 0.00 | 0.15 | 0.00 | 79 | 1016.0 |
| 20260505171618 | 15 | 145 | 0.0 | 1.6 | 0.00 | 0.15 | 0.00 | 79 | 1016.0 |
| 20260505171118 | 15 | 0 | 0.0 | 0.0 | 0.00 | 0.15 | 0.00 | 79 | 1016.0 |
| 20260505170619 | 15 | 0 | 0.0 | 0.0 | 0.00 | 0.15 | 0.00 | 80 | 1016.0 |
| 20260505170118 | 15 | 0 | 0.0 | 0.0 | 0.00 | 0.15 | 0.00 | 79 | 1016.0 |
| 20260505165618 | 15 | 0 | 0.0 | 0.0 | 0.00 | 0.15 | 0.00 | 80 | 1016.0 |
| 20260505165119 | 15 | 118 | 0.0 | 1.6 | 0.00 | 0.15 | 0.00 | 80 | 1016.0 |
| 20260505164618 | 15 | 118 | 0.0 | 1.6 | 0.00 | 0.15 | 0.00 | 80 | 1016.0 |
| 20260505164119 | 15 | 138 | 0.0 | 1.6 | 0.00 | 0.15 | 0.00 | 80 | 1016.0 |
| 20260505163618 | 14 | 134 | 0.0 | 1.6 | 0.00 | 0.15 | 0.00 | 80 | 1016.0 |
| 20260505163119 | 15 | 113 | 0.0 | 1.6 | 0.00 | 0.15 | 0.00 | 80 | 1015.9 |
| 20260505162618 | 14 | 127 | 0.0 | 1.6 | 0.00 | 0.15 | 0.00 | 81 | 1015.8 |
| 20260505162118 | 14 | 127 | 0.0 | 1.6 | 0.00 | 0.15 | 0.00 | 83 | 1015.8 |
| 20260505161618 | 14 | 0 | 0.0 | 0.0 | 0.00 | 0.15 | 0.00 | 83 | 1015.7 |
| 20260505161118 | 14 | 0 | 0.0 | 0.0 | 0.00 | 0.15 | 0.00 | 83 | 1015.8 |
| 20260505160618 | 14 | 0 | 0.0 | 0.0 | 0.00 | 0.15 | 0.00 | 83 | 1015.7 |
| 20260505160118 | 14 | 0 | 0.0 | 0.0 | 0.00 | 0.15 | 0.00 | 84 | 1015.7 |
| 20260505153118 | 13 | 0 | 0.0 | 0.0 | 0.00 | 0.18 | 0.00 | 88 | 1015.7 |
| 20260505152618 | 12 | 0 | 0.0 | 0.0 | 0.00 | 0.18 | 0.00 | 89 | 1015.6 |
| 20260505152118 | 12 | 0 | 0.0 | 0.0 | 0.00 | 0.18 | 0.00 | 88 | 1015.6 |
| 20260505151618 | 12 | 0 | 0.0 | 0.0 | 0.00 | 0.18 | 0.00 | 90 | 1015.6 |
| 20260505151119 | 12 | 0 | 0.0 | 0.0 | 0.00 | 0.20 | 0.00 | 89 | 1015.5 |
| 20260505150619 | 12 | 0 | 0.0 | 0.0 | 0.00 | 0.20 | 0.00 | 89 | 1015.5 |
| 20260505150118 | 12 | 0 | 0.0 | 0.0 | 0.00 | 0.20 | 0.00 | 89 | 1015.5 |
| 20260505140618 | 12 | 0 | 0.0 | 0.0 | 0.00 | 0.30 | 0.00 | 91 | 1015.2 |
| 20260505140118 | 12 | 0 | 0.0 | 0.0 | 0.00 | 0.30 | 0.00 | 91 | 1015.0 |
| 20260505130118 | 12 | 0 | 0.0 | 0.0 | 0.00 | 0.30 | 0.00 | 91 | 1014.7 |
| 20260505124618 | 12 | 0 | 0.0 | 0.0 | 0.00 | 0.30 | 0.00 | 91 | 1014.8 |
| 20260505124118 | 12 | 0 | 0.0 | 0.0 | 0.00 | 0.30 | 0.00 | 91 | 1014.8 |
| 20260505123618 | 12 | 0 | 0.0 | 0.0 | 0.00 | 0.30 | 0.00 | 91 | 1014.8 |
| 20260505123118 | 12 | 0 | 0.0 | 0.0 | 0.00 | 0.30 | 0.00 | 91 | 1014.8 |
| 20260505122618 | 12 | 0 | 0.0 | 0.0 | 0.00 | 0.30 | 0.00 | 91 | 1014.8 |
| 20260505122118 | 12 | 0 | 0.0 | 0.0 | 0.00 | 0.30 | 0.00 | 91 | 1014.8 |
| 20260505121618 | 12 | 0 | 0.0 | 0.0 | 0.00 | 0.30 | 0.00 | 91 | 1014.8 |
| 20260505121119 | 12 | 0 | 0.0 | 0.0 | 0.00 | 0.30 | 0.00 | 91 | 1014.8 |
| 20260505120618 | 12 | 0 | 0.0 | 0.0 | 0.00 | 0.30 | 0.00 | 91 | 1014.9 |
| 20260505120118 | 12 | 211 | 0.0 | 1.6 | 0.00 | 0.30 | 0.00 | 91 | 1014.9 |
| 20260505115618 | 12 | 211 | 0.0 | 1.6 | 0.00 | 0.30 | 0.00 | 91 | 1014.8 |
| 20260505115118 | 12 | 164 | 0.0 | 1.6 | 0.00 | 0.30 | 0.00 | 91 | 1014.8 |
| 20260505114618 | 12 | 145 | 0.0 | 1.6 | 0.00 | 0.30 | 0.00 | 91 | 1014.8 |
| 20260505114118 | 12 | 0 | 0.0 | 0.0 | 0.00 | 0.30 | 0.00 | 91 | 1014.8 |
| 20260505113618 | 12 | 0 | 0.0 | 0.0 | 0.00 | 0.30 | 0.00 | 91 | 1014.8 |
| 20260505113119 | 12 | 0 | 0.0 | 0.0 | 0.00 | 0.30 | 0.00 | 91 | 1014.8 |
| 20260505112619 | 12 | 243 | 0.0 | 1.6 | 0.00 | 0.30 | 0.00 | 91 | 1014.8 |
| 20260505112119 | 12 | 243 | 0.0 | 1.6 | 0.00 | 0.30 | 0.00 | 91 | 1014.8 |
| 20260505111619 | 12 | 0 | 0.0 | 0.0 | 0.00 | 0.30 | 0.00 | 91 | 1014.8 |
| 20260505111118 | 12 | 0 | 0.0 | 0.0 | 0.00 | 0.30 | 0.00 | 91 | 1014.8 |
| 20260505110618 | 12 | 0 | 0.0 | 0.0 | 0.00 | 0.30 | 0.00 | 91 | 1014.7 |
| 20260505110118 | 12 | 0 | 0.0 | 0.0 | 0.00 | 0.30 | 0.00 | 91 | 1014.8 |
| 20260505102118 | 12 | 122 | 0.0 | 1.6 | 0.00 | 0.30 | 0.00 | 91 | 1014.7 |
| 20260505101618 | 12 | 122 | 0.0 | 1.6 | 0.00 | 0.30 | 0.00 | 91 | 1014.7 |
| 20260505101118 | 12 | 232 | 0.0 | 1.6 | 0.00 | 0.30 | 0.00 | 91 | 1014.7 |
| 20260505100618 | 12 | 206 | 0.0 | 1.6 | 0.00 | 0.30 | 0.00 | 91 | 1014.6 |
| 20260505100119 | 12 | 118 | 0.0 | 1.6 | 0.00 | 0.30 | 0.00 | 91 | 1014.7 |
| 20260505095619 | 12 | 95 | 0.0 | 1.6 | 0.00 | 0.30 | 0.00 | 91 | 1014.7 |
| 20260505095119 | 12 | 105 | 0.0 | 1.6 | 0.00 | 0.30 | 0.00 | 91 | 1014.7 |
| 20260505094618 | 12 | 0 | 0.0 | 0.0 | 0.00 | 0.30 | 0.00 | 91 | 1014.7 |
| 20260505094118 | 12 | 137 | 0.0 | 1.6 | 0.00 | 0.30 | 0.00 | 91 | 1014.6 |
| 20260505093618 | 12 | 137 | 0.0 | 1.6 | 0.00 | 0.30 | 0.00 | 91 | 1014.7 |
| 20260505093118 | 12 | 119 | 0.0 | 1.6 | 0.00 | 0.30 | 0.00 | 91 | 1014.7 |
| 20260505092618 | 12 | 119 | 0.0 | 1.6 | 0.00 | 0.30 | 0.00 | 91 | 1014.8 |